Time;durP1;ratioP1;P1;durP2;ratioP2;P2;SDS_P1;SDS_P2;PMS_P1;PMS_P2;Temp;Humidity;BMP_temperature;BMP_pressure;BME280_temperature;BME280_humidity;BME280_pressure;Samples;Min_cycle;Max_cycle;Signal;HPM_P1;HPM_P2
2023/02/26 00:02:24;;;;;;;5.57;1.13;;;1.30;99.90;;;;;;5015604;28;20223;-72
2023/02/26 00:04:53;;;;;;;6.30;1.40;;;1.30;99.90;;;;;;4993293;28;20049;-72
2023/02/26 00:07:18;;;;;;;8.13;1.60;;;1.30;99.90;;;;;;4990075;28;20049;-72
2023/02/26 00:09:44;;;;;;;7.93;1.90;;;1.40;99.90;;;;;;4999950;28;20050;-72
2023/02/26 00:12:11;;;;;;;9.73;1.40;;;1.30;99.90;;;;;;4988898;28;20249;-72
2023/02/26 00:14:37;;;;;;;7.63;1.97;;;1.20;99.90;;;;;;5009965;28;20052;-72
2023/02/26 00:17:29;;;;;;;7.33;1.67;;;1.20;99.90;;;;;;5023629;28;20046;-72
2023/02/26 00:19:59;;;;;;;5.83;1.50;;;1.10;99.90;;;;;;5004004;28;20053;-73
2023/02/26 00:22:28;;;;;;;7.82;1.75;;;1.10;99.90;;;;;;5019968;28;20407;-72
2023/02/26 00:24:54;;;;;;;8.00;1.43;;;1.00;99.90;;;;;;4990860;28;20053;-72
2023/02/26 00:27:19;;;;;;;6.53;1.97;;;1.00;99.90;;;;;;5038534;28;20400;-72
2023/02/26 00:29:46;;;;;;;7.33;1.67;;;0.90;99.90;;;;;;5018867;28;20049;-72
2023/02/26 00:32:12;;;;;;;5.97;1.80;;;0.90;99.90;;;;;;5001184;28;20077;-72
2023/02/26 00:34:39;;;;;;;9.03;1.97;;;0.80;99.90;;;;;;4990376;28;20049;-72
2023/02/26 00:37:27;;;;;;;5.73;1.40;;;0.80;99.90;;;;;;4987409;28;20034;-72
2023/02/26 00:40:05;;;;;;;5.93;1.50;;;0.80;99.90;;;;;;5020098;28;20548;-72
2023/02/26 00:42:31;;;;;;;5.93;1.53;;;0.70;99.90;;;;;;5021517;28;20048;-72
2023/02/26 00:44:57;;;;;;;6.50;1.70;;;0.70;99.90;;;;;;5023764;28;20085;-72
2023/02/26 00:47:48;;;;;;;6.73;1.43;;;0.60;99.90;;;;;;4974680;28;20421;-72
2023/02/26 00:50:19;;;;;;;6.07;1.73;;;0.60;99.90;;;;;;5014849;28;20038;-72
2023/02/26 00:53:16;;;;;;;5.80;1.53;;;0.50;99.90;;;;;;5021670;28;20061;-72
2023/02/26 00:55:45;;;;;;;5.67;1.60;;;0.60;99.90;;;;;;5006162;28;20053;-71
2023/02/26 00:58:11;;;;;;;6.67;1.70;;;0.60;99.90;;;;;;5001977;28;20041;-71
2023/02/26 01:00:37;;;;;;;7.67;1.70;;;0.60;99.90;;;;;;5020976;28;20526;-71
2023/02/26 01:03:03;;;;;;;4.90;1.30;;;0.60;99.90;;;;;;5017024;28;20053;-71
2023/02/26 01:05:29;;;;;;;5.20;1.60;;;0.60;99.90;;;;;;5007485;28;20049;-72
2023/02/26 01:08:23;;;;;;;8.03;1.37;;;0.60;99.90;;;;;;5002837;28;20049;-72
2023/02/26 01:10:52;;;;;;;4.73;1.30;;;0.60;99.90;;;;;;5012143;28;20057;-72
2023/02/26 01:13:18;;;;;;;5.20;1.20;;;0.60;99.90;;;;;;5014329;28;20179;-72
2023/02/26 01:15:51;;;;;;;6.83;1.70;;;0.60;99.90;;;;;;4998098;28;20424;-72
2023/02/26 01:18:50;;;;;;;5.97;1.50;;;0.60;99.90;;;;;;5028548;28;20115;-72
2023/02/26 01:21:24;;;;;;;4.33;1.33;;;0.60;99.90;;;;;;5014257;28;20057;-71
2023/02/26 01:23:51;;;;;;;3.60;1.13;;;0.60;99.90;;;;;;4997996;28;20049;-71
2023/02/26 01:26:28;;;;;;;5.40;1.20;;;0.70;99.90;;;;;;5008769;28;20456;-72
2023/02/26 01:28:54;;;;;;;7.60;1.60;;;0.70;99.90;;;;;;5007223;28;20049;-72
2023/02/26 01:31:56;;;;;;;8.27;1.57;;;0.70;99.90;;;;;;5018145;28;20113;-72
2023/02/26 01:34:28;;;;;;;5.27;1.03;;;0.70;99.90;;;;;;5023117;28;20041;-72
2023/02/26 01:37:11;;;;;;;4.50;0.90;;;0.70;99.90;;;;;;5007930;28;20053;-72
2023/02/26 01:39:47;;;;;;;5.30;1.90;;;0.70;99.90;;;;;;5015934;28;20046;-73
2023/02/26 01:42:26;;;;;;;5.53;1.00;;;0.70;99.90;;;;;;5018315;28;20046;-72
2023/02/26 01:45:03;;;;;;;5.73;1.30;;;0.70;99.90;;;;;;5022167;28;20057;-72
2023/02/26 01:47:50;;;;;;;5.20;1.20;;;0.70;99.90;;;;;;5024522;28;21196;-72
2023/02/26 01:50:20;;;;;;;6.20;1.37;;;0.70;99.90;;;;;;5020502;28;20096;-72
2023/02/26 01:52:46;;;;;;;5.60;1.17;;;0.70;99.90;;;;;;5008709;28;20045;-72
2023/02/26 01:55:16;;;;;;;5.27;1.10;;;0.70;99.90;;;;;;5014860;28;20064;-72
2023/02/26 01:57:43;;;;;;;5.60;1.25;;;0.60;99.90;;;;;;5008066;28;20054;-72
2023/02/26 02:00:09;;;;;;;5.57;1.60;;;0.60;99.90;;;;;;4982771;28;20057;-72
2023/02/26 02:02:35;;;;;;;5.23;1.00;;;0.60;99.80;;;;;;5035159;28;20053;-72
2023/02/26 02:05:12;;;;;;;4.30;1.20;;;0.60;99.90;;;;;;4993313;28;20480;-72
2023/02/26 02:07:37;;;;;;;5.23;1.03;;;0.60;99.90;;;;;;5001937;28;20053;-72
2023/02/26 02:10:03;;;;;;;6.40;1.47;;;0.50;99.90;;;;;;5015552;28;20413;-72
2023/02/26 02:12:57;;;;;;;7.10;1.10;;;0.50;99.90;;;;;;4995108;28;20060;-72
2023/02/26 02:15:43;;;;;;;5.27;1.20;;;0.50;99.90;;;;;;5015797;28;20257;-72
2023/02/26 02:18:17;;;;;;;4.67;1.20;;;0.50;99.90;;;;;;5020906;28;20065;-72
2023/02/26 02:20:52;;;;;;;5.30;1.20;;;0.50;99.90;;;;;;5015129;28;20049;-72
2023/02/26 02:23:20;;;;;;;7.37;1.10;;;0.50;99.80;;;;;;5023768;28;20549;-72
2023/02/26 02:26:06;;;;;;;4.93;1.47;;;0.40;99.90;;;;;;5015738;28;20058;-72
2023/02/26 02:28:50;;;;;;;6.27;1.73;;;0.40;99.90;;;;;;5028964;28;20087;-72
2023/02/26 02:31:39;;;;;;;6.50;0.90;;;0.40;99.80;;;;;;5011925;28;20192;-73
2023/02/26 02:34:14;;;;;;;5.80;1.10;;;0.40;99.60;;;;;;5020255;28;20077;-72
2023/02/26 02:36:53;;;;;;;4.97;1.10;;;0.40;99.70;;;;;;5019648;28;20559;-72
2023/02/26 02:39:28;;;;;;;7.00;1.57;;;0.30;99.50;;;;;;5008087;28;20072;-72
2023/02/26 02:42:06;;;;;;;3.53;1.10;;;0.30;99.40;;;;;;5024087;28;20509;-72
2023/02/26 02:44:40;;;;;;;3.70;1.13;;;0.30;99.50;;;;;;5004504;28;20503;-72
2023/02/26 02:47:09;;;;;;;5.40;1.13;;;0.30;99.30;;;;;;5029218;28;20065;-72
2023/02/26 02:49:45;;;;;;;5.03;1.03;;;0.30;99.30;;;;;;5004977;28;20064;-72
2023/02/26 02:52:40;;;;;;;5.30;1.47;;;0.30;99.10;;;;;;5023169;28;20119;-72
2023/02/26 02:55:20;;;;;;;4.57;1.03;;;0.30;98.60;;;;;;5034319;28;20042;-72
2023/02/26 02:57:52;;;;;;;;;;;0.30;98.60;;;;;;5017449;28;20085;-71
2023/02/26 03:00:23;;;;;;;5.60;1.43;;;0.30;98.90;;;;;;5015024;28;20004;-74
2023/02/26 03:03:09;;;;;;;5.57;1.20;;;0.30;98.90;;;;;;4989488;28;20135;-71
2023/02/26 03:05:35;;;;;;;4.20;0.80;;;0.30;98.20;;;;;;5037764;28;20088;-74
2023/02/26 03:08:16;;;;;;;6.43;1.00;;;0.30;98.10;;;;;;5015510;28;20046;-74
2023/02/26 03:10:42;;;;;;;4.73;1.33;;;0.30;98.20;;;;;;5036503;28;20056;-73
2023/02/26 03:13:16;;;;;;;4.03;1.23;;;0.30;98.40;;;;;;5009817;28;20042;-76
2023/02/26 03:16:09;;;;;;;5.33;1.20;;;0.30;98.50;;;;;;5001832;28;20103;-74
2023/02/26 03:18:34;;;;;;;4.93;1.20;;;0.20;98.80;;;;;;5007293;28;20044;-74
2023/02/26 03:21:05;;;;;;;4.93;1.53;;;0.20;99.20;;;;;;5026438;28;20057;-74
2023/02/26 03:23:37;;;;;;;4.30;1.17;;;0.20;99.20;;;;;;5011783;28;20519;-74
2023/02/26 03:26:11;;;;;;;5.37;0.90;;;0.20;99.20;;;;;;5014985;28;20054;-74
2023/02/26 03:28:57;;;;;;;5.57;1.03;;;0.10;99.30;;;;;;5005025;28;20057;-74
2023/02/26 03:31:55;;;;;;;4.77;1.20;;;0.10;99.40;;;;;;5019997;28;20057;-75
2023/02/26 03:34:26;;;;;;;5.87;1.00;;;0.10;99.80;;;;;;5022203;28;20588;-74
2023/02/26 03:37:36;;;;;;;3.87;1.00;;;0.00;99.90;;;;;;5018776;28;20399;-75
2023/02/26 03:40:07;;;;;;;3.00;1.00;;;0.00;99.90;;;;;;5009767;28;20053;-74
2023/02/26 03:42:48;;;;;;;5.37;1.10;;;-0.10;99.90;;;;;;5004565;28;20049;-75
2023/02/26 03:45:18;;;;;;;4.43;1.20;;;-0.10;99.90;;;;;;5025952;28;20041;-74
2023/02/26 03:47:45;;;;;;;;;;;-0.20;99.90;;;;;;5021291;28;20054;-75
2023/02/26 03:50:43;;;;;;;5.73;1.13;;;-0.20;99.90;;;;;;5025023;28;20000;-75
2023/02/26 03:53:13;;;;;;;4.97;1.57;;;-0.30;99.90;;;;;;5017565;28;20530;-75
2023/02/26 03:55:58;;;;;;;4.77;1.30;;;-0.30;99.90;;;;;;5020279;28;20053;-75
2023/02/26 03:58:27;;;;;;;3.67;0.80;;;-0.40;99.90;;;;;;5029681;28;20048;-74
2023/02/26 04:01:07;;;;;;;7.70;1.33;;;-0.40;99.90;;;;;;5036848;28;20580;-74
2023/02/26 04:03:53;;;;;;;5.38;1.23;;;-0.40;99.90;;;;;;5024028;28;20132;-74
2023/02/26 04:06:20;;;;;;;4.27;1.17;;;-0.50;99.90;;;;;;5017020;28;20104;-74
2023/02/26 04:08:46;;;;;;;7.73;1.13;;;-0.50;99.90;;;;;;5022956;28;20413;-75
2023/02/26 04:11:16;;;;;;;5.43;1.40;;;-0.50;99.90;;;;;;5003647;28;20058;-74
2023/02/26 04:13:42;;;;;;;5.30;1.15;;;-0.50;99.90;;;;;;5022245;28;20052;-74
2023/02/26 04:16:12;;;;;;;5.67;1.20;;;-0.50;99.90;;;;;;5007813;28;20116;-74
2023/02/26 04:18:38;;;;;;;6.53;1.00;;;-0.60;99.90;;;;;;5016339;28;20556;-74
2023/02/26 04:21:06;;;;;;;6.50;1.40;;;-0.60;99.90;;;;;;5037847;28;20338;-74
2023/02/26 04:23:32;;;;;;;5.27;1.10;;;-0.60;99.90;;;;;;5040417;28;20575;-74
2023/02/26 04:26:00;;;;;;;4.73;0.90;;;-0.80;99.90;;;;;;5017299;28;20355;-74
2023/02/26 04:28:26;;;;;;;5.37;1.40;;;-0.70;99.90;;;;;;5025497;28;20053;-74
2023/02/26 04:30:52;;;;;;;5.87;1.10;;;-0.60;99.90;;;;;;5002020;28;20046;-74
2023/02/26 04:33:18;;;;;;;5.13;1.20;;;-0.70;99.90;;;;;;5041612;28;20140;-74
2023/02/26 04:35:44;;;;;;;4.23;1.20;;;-0.80;99.90;;;;;;5013189;28;20049;-74
2023/02/26 04:38:10;;;;;;;4.53;1.20;;;-0.80;99.90;;;;;;4992895;28;20046;-76
2023/02/26 04:40:38;;;;;;;5.27;1.20;;;-0.80;99.90;;;;;;5010064;28;20076;-74
2023/02/26 04:43:04;;;;;;;5.07;1.03;;;-0.80;99.90;;;;;;5023465;28;20042;-73
2023/02/26 04:45:30;;;;;;;7.17;1.10;;;-0.90;99.90;;;;;;5018528;28;20084;-73
2023/02/26 04:47:56;;;;;;;3.50;0.80;;;-0.90;99.90;;;;;;5020988;28;20187;-73
2023/02/26 04:50:22;;;;;;;7.50;1.13;;;-0.90;99.90;;;;;;5034721;28;20096;-76
2023/02/26 04:52:48;;;;;;;6.47;1.40;;;-0.90;99.90;;;;;;5008432;28;20048;-73
2023/02/26 04:55:14;;;;;;;7.03;1.43;;;-1.00;99.90;;;;;;5019133;28;20041;-73
2023/02/26 04:57:39;;;;;;;5.53;1.10;;;-1.00;99.90;;;;;;5003504;28;20046;-74
2023/02/26 05:00:08;;;;;;;3.50;0.87;;;-1.10;99.90;;;;;;4998653;28;20049;-73
2023/02/26 05:02:34;;;;;;;6.80;1.17;;;-1.10;99.90;;;;;;5010738;28;20054;-74
2023/02/26 05:05:00;;;;;;;4.73;1.00;;;-1.10;99.90;;;;;;5019005;28;20033;-73
2023/02/26 05:07:26;;;;;;;5.10;1.10;;;-1.20;99.90;;;;;;5019243;28;20041;-73
2023/02/26 05:09:52;;;;;;;2.60;0.80;;;-1.10;99.90;;;;;;5010783;28;20045;-74
2023/02/26 05:12:17;;;;;;;4.60;1.10;;;-1.10;99.90;;;;;;5015737;28;20038;-73
2023/02/26 05:14:43;;;;;;;5.77;1.20;;;-1.10;99.90;;;;;;5001589;28;20389;-74
2023/02/26 05:17:09;;;;;;;7.27;1.30;;;-1.20;99.90;;;;;;5038046;28;20052;-74
2023/02/26 05:19:35;;;;;;;6.83;1.50;;;-1.20;99.90;;;;;;5020278;28;20046;-74
2023/02/26 05:22:01;;;;;;;6.87;1.20;;;-1.20;99.90;;;;;;5013899;28;20046;-73
2023/02/26 05:24:27;;;;;;;5.47;1.50;;;-1.30;99.90;;;;;;5000587;28;20053;-74
2023/02/26 05:26:52;;;;;;;5.70;1.00;;;-1.30;99.90;;;;;;5013423;28;20076;-74
2023/02/26 05:29:18;;;;;;;7.33;1.80;;;-1.30;99.90;;;;;;5003946;28;20140;-73
2023/02/26 05:31:47;;;;;;;8.20;1.40;;;-1.30;99.90;;;;;;5032064;28;20143;-74
2023/02/26 05:34:13;;;;;;;9.43;1.47;;;-1.30;99.90;;;;;;5013513;28;20038;-73
2023/02/26 05:36:39;;;;;;;5.57;1.23;;;-1.40;99.90;;;;;;5017877;28;20053;-74
2023/02/26 05:39:04;;;;;;;6.00;1.17;;;-1.30;99.90;;;;;;5038839;28;20049;-74
2023/02/26 05:41:30;;;;;;;6.10;1.50;;;-1.30;99.90;;;;;;5001616;28;20049;-74
2023/02/26 05:43:56;;;;;;;6.10;1.40;;;-1.30;99.90;;;;;;4996546;28;20492;-74
2023/02/26 05:46:22;;;;;;;9.17;1.73;;;-1.20;99.90;;;;;;5021285;28;20045;-73
2023/02/26 05:48:48;;;;;;;6.80;1.07;;;-1.30;99.90;;;;;;5024360;28;20401;-73
2023/02/26 05:51:14;;;;;;;5.57;1.47;;;-1.30;99.90;;;;;;4995701;28;20054;-74
2023/02/26 05:53:39;;;;;;;3.50;1.13;;;-1.30;99.90;;;;;;5010682;28;20152;-74
2023/02/26 05:56:05;;;;;;;5.13;1.20;;;-1.30;99.90;;;;;;5020539;28;20440;-74
2023/02/26 05:58:32;;;;;;;6.83;1.90;;;-1.30;99.90;;;;;;5004272;28;20631;-74
2023/02/26 06:00:59;;;;;;;8.17;1.53;;;-1.30;99.90;;;;;;4991040;28;20165;-74
2023/02/26 06:03:25;;;;;;;6.57;1.40;;;-1.30;99.90;;;;;;5008749;28;20451;-73
2023/02/26 06:05:51;;;;;;;6.23;1.37;;;-1.30;99.90;;;;;;5011028;28;20504;-73
2023/02/26 06:08:17;;;;;;;6.17;0.97;;;-1.40;99.90;;;;;;4994372;28;20049;-73
2023/02/26 06:10:43;;;;;;;8.20;1.53;;;-1.40;99.90;;;;;;4984686;28;20057;-73
2023/02/26 06:13:09;;;;;;;5.93;1.87;;;-1.40;99.90;;;;;;5006963;28;20049;-73
2023/02/26 06:15:34;;;;;;;6.37;1.40;;;-1.40;99.90;;;;;;5008838;28;20045;-73
2023/02/26 06:18:00;;;;;;;4.30;1.70;;;-1.40;99.90;;;;;;5013560;28;20092;-73
2023/02/26 06:20:26;;;;;;;7.57;1.40;;;-1.40;99.90;;;;;;5017889;28;20447;-74
2023/02/26 06:22:52;;;;;;;6.63;1.63;;;-1.30;99.90;;;;;;5005206;28;20049;-75
2023/02/26 06:25:18;;;;;;;6.23;1.57;;;-1.40;99.90;;;;;;5008493;28;20095;-74
2023/02/26 06:27:44;;;;;;;4.63;1.60;;;-1.40;99.90;;;;;;5001027;28;20409;-74
2023/02/26 06:30:10;;;;;;;7.47;1.50;;;-1.40;99.90;;;;;;5014929;28;20484;-75
2023/02/26 06:32:39;;;;;;;4.97;1.20;;;-1.40;99.90;;;;;;4989560;28;20184;-75
2023/02/26 06:35:05;;;;;;;5.20;1.33;;;-1.40;99.90;;;;;;5007077;28;20568;-74
2023/02/26 06:37:31;;;;;;;7.63;1.20;;;-1.30;99.90;;;;;;5007181;28;20046;-74
2023/02/26 06:39:59;;;;;;;7.67;1.40;;;-1.30;99.90;;;;;;5000334;28;20188;-74
2023/02/26 06:42:28;;;;;;;8.27;1.53;;;-1.20;99.90;;;;;;5030147;28;20129;-74
2023/02/26 06:44:57;;;;;;;4.37;1.13;;;-1.20;99.90;;;;;;5014731;28;20046;-74
2023/02/26 06:47:23;;;;;;;9.97;1.70;;;-1.10;99.90;;;;;;5003126;28;20429;-75
2023/02/26 06:49:49;;;;;;;5.87;1.50;;;-1.10;99.90;;;;;;5008223;28;20080;-75
2023/02/26 06:52:15;;;;;;;4.30;1.30;;;-1.00;99.90;;;;;;5002953;28;20077;-74
2023/02/26 06:54:41;;;;;;;6.10;1.33;;;-0.90;99.90;;;;;;5004240;28;20042;-73
2023/02/26 06:57:07;;;;;;;5.83;1.33;;;-0.70;99.90;;;;;;5002722;28;20037;-73
2023/02/26 06:59:33;;;;;;;7.50;1.20;;;-0.60;99.90;;;;;;5013635;28;20056;-71
2023/02/26 07:01:58;;;;;;;4.40;1.33;;;-0.50;99.90;;;;;;4989255;28;20527;-71
2023/02/26 07:04:25;;;;;;;4.50;1.37;;;-0.40;99.90;;;;;;4988136;28;20041;-71
2023/02/26 07:06:51;;;;;;;5.93;1.07;;;-0.30;99.90;;;;;;5013713;28;20049;-71
2023/02/26 07:09:18;;;;;;;4.87;1.10;;;-0.30;99.90;;;;;;5014747;28;20040;-71
2023/02/26 07:11:44;;;;;;;4.70;1.20;;;-0.10;99.90;;;;;;5015928;28;20136;-73
2023/02/26 07:14:10;;;;;;;5.00;1.10;;;-0.10;99.90;;;;;;5002652;28;20156;-73
2023/02/26 07:16:36;;;;;;;6.57;1.47;;;0.10;99.90;;;;;;5011927;28;20045;-73
2023/02/26 07:19:01;;;;;;;8.03;1.67;;;0.20;99.90;;;;;;5028338;28;20050;-73
2023/02/26 07:21:27;;;;;;;5.23;1.10;;;0.10;99.90;;;;;;5019200;28;21162;-73
2023/02/26 07:23:53;;;;;;;4.47;1.10;;;0.10;99.90;;;;;;5003267;28;20096;-73
2023/02/26 07:26:19;;;;;;;5.97;1.40;;;0.10;99.90;;;;;;4992068;28;20042;-73
2023/02/26 07:28:45;;;;;;;4.20;0.90;;;0.30;99.90;;;;;;5001858;28;20152;-73
2023/02/26 07:31:11;;;;;;;4.90;1.30;;;0.20;99.90;;;;;;4990669;28;20619;-73
2023/02/26 07:33:38;;;;;;;6.10;1.30;;;0.30;99.90;;;;;;4985009;28;20045;-73
2023/02/26 07:36:05;;;;;;;4.70;1.23;;;0.40;99.90;;;;;;5021192;28;20080;-73
2023/02/26 07:38:30;;;;;;;7.10;1.30;;;0.40;99.90;;;;;;5006839;28;20519;-73
2023/02/26 07:40:56;;;;;;;4.07;1.20;;;0.50;99.90;;;;;;4990360;28;20069;-74
2023/02/26 07:43:25;;;;;;;5.10;1.10;;;0.50;99.90;;;;;;4990684;28;20481;-73
2023/02/26 07:45:51;;;;;;;4.07;1.40;;;0.60;99.90;;;;;;5011085;28;20062;-73
2023/02/26 07:48:18;;;;;;;4.47;1.30;;;0.70;99.90;;;;;;5016581;28;20397;-74
2023/02/26 07:50:44;;;;;;;4.27;1.10;;;0.70;99.90;;;;;;5013244;28;20107;-74
2023/02/26 07:53:10;;;;;;;4.33;1.30;;;0.80;99.90;;;;;;5015447;28;20038;-72
2023/02/26 07:55:36;;;;;;;4.93;1.03;;;0.80;99.90;;;;;;4988384;28;20041;-72
2023/02/26 07:58:01;;;;;;;5.93;1.00;;;0.90;99.90;;;;;;4989432;28;20303;-72
2023/02/26 08:00:27;;;;;;;5.70;1.20;;;0.90;99.90;;;;;;5020391;28;20060;-72
2023/02/26 08:02:53;;;;;;;4.83;1.00;;;0.90;99.90;;;;;;5007262;28;20615;-71
2023/02/26 08:05:19;;;;;;;4.57;1.33;;;0.90;99.90;;;;;;5005796;28;20140;-72
2023/02/26 08:07:45;;;;;;;4.47;0.90;;;1.00;99.90;;;;;;5005384;28;20504;-71
2023/02/26 08:10:11;;;;;;;5.80;1.00;;;1.00;99.90;;;;;;5006005;28;21084;-72
2023/02/26 08:12:37;;;;;;;3.83;0.93;;;1.10;99.90;;;;;;5000478;28;20556;-71
2023/02/26 08:15:04;;;;;;;4.73;1.10;;;1.20;99.90;;;;;;5022276;28;20095;-71
2023/02/26 08:17:30;;;;;;;5.53;1.30;;;1.40;99.90;;;;;;4998269;28;20144;-71
2023/02/26 08:19:56;;;;;;;4.93;0.93;;;1.50;99.90;;;;;;5003593;28;20717;-71
2023/02/26 08:22:22;;;;;;;5.97;1.40;;;1.70;99.90;;;;;;5027971;28;20401;-72
2023/02/26 08:24:49;;;;;;;4.70;0.97;;;1.80;99.90;;;;;;4975075;28;20544;-72
2023/02/26 08:27:15;;;;;;;3.93;0.63;;;2.00;99.90;;;;;;5012017;28;20600;-71
2023/02/26 08:29:41;;;;;;;5.53;1.60;;;2.20;99.90;;;;;;5027569;28;20111;-72
2023/02/26 08:32:08;;;;;;;4.10;0.87;;;2.40;99.90;;;;;;5019541;28;20099;-72
2023/02/26 08:34:34;;;;;;;5.53;1.43;;;2.60;99.90;;;;;;5004132;28;20047;-72
2023/02/26 08:36:59;;;;;;;4.60;1.00;;;2.80;98.60;;;;;;5002992;28;20288;-72
2023/02/26 08:39:25;;;;;;;5.97;1.13;;;3.00;98.30;;;;;;5002095;28;20060;-72
2023/02/26 08:41:57;;;;;;;4.37;1.23;;;3.10;98.20;;;;;;5002096;28;20054;-72
2023/02/26 08:44:23;;;;;;;5.20;1.07;;;3.30;98.20;;;;;;5002748;28;20076;-72
2023/02/26 08:46:49;;;;;;;5.13;1.00;;;3.30;98.10;;;;;;5005350;28;20460;-72
2023/02/26 08:49:15;;;;;;;4.33;0.93;;;3.40;97.00;;;;;;5004209;28;20484;-72
2023/02/26 08:51:41;;;;;;;4.07;1.10;;;3.50;96.50;;;;;;5002568;28;20073;-72
2023/02/26 08:54:07;;;;;;;2.87;0.90;;;3.60;96.60;;;;;;5006353;28;20097;-71
2023/02/26 08:56:34;;;;;;;3.70;1.05;;;3.70;95.90;;;;;;5002063;28;20103;-71
2023/02/26 08:58:59;;;;;;;8.25;1.60;;;3.80;94.90;;;;;;4991183;28;20054;-74
2023/02/26 09:01:25;;;;;;;5.10;1.20;;;3.90;94.70;;;;;;4986454;28;20937;-71
2023/02/26 09:03:51;;;;;;;3.60;0.90;;;4.00;94.40;;;;;;4984162;28;20111;-72
2023/02/26 09:06:17;;;;;;;6.00;1.20;;;4.10;94.10;;;;;;4995417;28;20505;-72
2023/02/26 09:08:42;;;;;;;3.53;0.80;;;4.20;92.70;;;;;;5010747;28;20061;-72
2023/02/26 09:11:09;;;;;;;3.88;0.90;;;4.20;92.60;;;;;;5012126;28;20058;-72
2023/02/26 09:13:35;;;;;;;4.07;1.05;;;4.10;92.50;;;;;;5015785;28;20045;-72
2023/02/26 09:16:00;;;;;;;2.88;0.80;;;4.20;91.90;;;;;;5017981;28;20381;-71
2023/02/26 09:18:26;;;;;;;3.78;1.02;;;4.20;91.90;;;;;;5003485;28;20041;-72
2023/02/26 09:20:52;;;;;;;3.83;0.90;;;4.40;91.60;;;;;;5011147;28;20049;-72
2023/02/26 09:23:18;;;;;;;4.03;0.95;;;4.30;91.30;;;;;;5010958;28;20065;-72
2023/02/26 09:25:44;;;;;;;2.55;0.60;;;4.30;91.70;;;;;;5013625;28;20495;-71
2023/02/26 09:28:10;;;;;;;4.38;1.00;;;4.40;91.40;;;;;;4993423;28;20057;-72
2023/02/26 09:30:36;;;;;;;4.18;0.85;;;4.40;91.10;;;;;;5000823;28;20041;-75
2023/02/26 09:33:02;;;;;;;4.25;1.40;;;4.40;91.20;;;;;;5003618;28;20045;-75
2023/02/26 09:35:27;;;;;;;3.88;0.90;;;4.40;89.80;;;;;;5006604;28;20050;-75
2023/02/26 09:37:53;;;;;;;3.85;1.27;;;4.50;90.60;;;;;;5009492;28;20057;-75
2023/02/26 09:40:56;;;;;;;3.70;0.85;;;4.50;90.80;;;;;;4997271;28;20096;-75
2023/02/26 09:43:53;;;;;;;4.40;1.02;;;4.60;89.60;;;;;;5012391;28;20030;-76
2023/02/26 09:46:35;;;;;;;4.85;1.05;;;4.60;88.80;;;;;;5016155;28;20141;-75
2023/02/26 09:49:26;;;;;;;3.25;0.60;;;4.60;89.80;;;;;;5012909;28;20053;-75
2023/02/26 09:52:30;;;;;;;5.00;0.90;;;4.60;90.00;;;;;;5003786;28;20084;-75
2023/02/26 09:55:04;;;;;;;2.60;0.70;;;4.70;84.50;;;;;;5012719;28;20049;-74
2023/02/26 09:57:34;;;;;;;3.47;0.75;;;4.70;86.00;;;;;;5001182;28;20037;-75
2023/02/26 10:00:06;;;;;;;2.28;0.60;;;4.80;85.00;;;;;;5008487;28;20060;-75
2023/02/26 10:02:36;;;;;;;2.60;0.90;;;4.80;83.40;;;;;;5013813;28;20060;-75
2023/02/26 10:05:20;;;;;;;;;;;4.80;84.10;;;;;;5010356;28;20054;-75
2023/02/26 10:08:21;;;;;;;4.13;0.70;;;4.80;85.10;;;;;;5007669;28;20334;-75
2023/02/26 10:11:20;;;;;;;2.90;0.65;;;4.90;85.90;;;;;;5009594;28;20041;-76
2023/02/26 10:13:51;;;;;;;3.38;0.73;;;5.00;83.30;;;;;;5010889;28;20501;-76
2023/02/26 10:16:22;;;;;;;3.58;0.70;;;5.10;82.80;;;;;;5014930;28;20111;-76
2023/02/26 10:18:59;;;;;;;1.75;0.73;;;5.10;81.40;;;;;;5010431;28;20057;-75
2023/02/26 10:21:35;;;;;;;3.35;0.70;;;5.10;80.80;;;;;;5012855;28;20064;-76
2023/02/26 10:24:09;;;;;;;3.97;0.70;;;5.10;81.60;;;;;;5006584;28;20129;-75
2023/02/26 10:26:49;;;;;;;3.42;0.65;;;5.10;80.40;;;;;;5021759;28;20049;-72
2023/02/26 10:29:39;;;;;;;4.38;0.60;;;5.10;82.30;;;;;;5011151;28;20041;-71
2023/02/26 10:32:31;;;;;;;3.45;0.65;;;5.20;79.50;;;;;;5017307;28;20045;-72
2023/02/26 10:35:07;;;;;;;3.90;0.70;;;5.10;80.40;;;;;;5005302;28;20046;-73
2023/02/26 10:37:50;;;;;;;2.90;0.68;;;5.10;82.10;;;;;;5011531;28;20420;-71
2023/02/26 10:40:41;;;;;;;4.70;0.70;;;5.20;80.90;;;;;;5012997;28;20049;-72
2023/02/26 10:44:05;;;;;;;5.20;0.90;;;5.30;79.00;;;;;;5012404;28;20081;-72
2023/02/26 10:46:52;;;;;;;4.53;1.30;;;5.30;80.50;;;;;;4986784;28;20053;-72
2023/02/26 10:49:32;;;;;;;3.25;0.60;;;5.30;79.90;;;;;;4983759;28;20064;-73
2023/02/26 10:52:15;;;;;;;4.47;1.00;;;5.30;82.90;;;;;;5013827;28;20050;-72
2023/02/26 10:55:26;;;;;;;3.22;0.88;;;5.40;82.50;;;;;;5008497;28;20049;-73
2023/02/26 10:58:13;;;;;;;5.10;0.95;;;5.50;84.30;;;;;;5010200;28;20068;-72
2023/02/26 11:00:45;;;;;;;3.92;0.50;;;5.60;84.30;;;;;;5014332;28;20508;-73
2023/02/26 11:03:33;;;;;;;2.55;0.70;;;5.60;82.80;;;;;;4986722;28;20058;-72
2023/02/26 11:06:02;;;;;;;2.92;0.63;;;5.70;85.60;;;;;;5021176;28;20112;-72
2023/02/26 11:08:33;;;;;;;2.67;0.70;;;5.70;81.30;;;;;;4985059;28;20052;-72
2023/02/26 11:11:03;;;;;;;2.67;0.40;;;5.70;81.50;;;;;;4997205;28;20042;-73
2023/02/26 11:13:32;;;;;;;2.83;0.68;;;5.80;78.80;;;;;;5007143;28;20065;-74
2023/02/26 11:16:01;;;;;;;1.48;0.40;;;5.80;77.90;;;;;;5009063;28;20063;-72
2023/02/26 11:18:40;;;;;;;2.08;0.60;;;5.70;79.50;;;;;;5010126;28;20049;-73
2023/02/26 11:21:15;;;;;;;2.95;0.50;;;5.80;77.30;;;;;;5004689;28;20060;-72
2023/02/26 11:23:42;;;;;;;4.03;0.75;;;5.80;77.40;;;;;;5036204;28;20048;-72
2023/02/26 11:26:20;;;;;;;3.40;0.77;;;5.80;78.30;;;;;;5002225;28;20046;-74
2023/02/26 11:28:48;;;;;;;4.63;0.60;;;5.90;78.80;;;;;;5008836;28;20492;-72
2023/02/26 11:31:17;;;;;;;3.30;0.75;;;5.90;78.60;;;;;;5032094;28;20563;-72
2023/02/26 11:34:03;;;;;;;3.65;0.60;;;5.90;79.00;;;;;;5013659;28;20056;-72
2023/02/26 11:36:32;;;;;;;2.97;0.68;;;6.00;80.00;;;;;;5008740;28;20150;-73
2023/02/26 11:39:06;;;;;;;4.38;0.68;;;6.10;81.60;;;;;;5012282;28;20460;-72
2023/02/26 11:41:38;;;;;;;2.55;0.77;;;6.20;78.70;;;;;;5028956;28;20057;-72
2023/02/26 11:44:12;;;;;;;7.53;1.10;;;6.30;79.30;;;;;;5004749;28;20119;-72
2023/02/26 11:46:51;;;;;;;3.38;0.60;;;6.30;79.80;;;;;;5026468;28;20115;-72
2023/02/26 11:49:21;;;;;;;3.63;0.73;;;6.40;79.80;;;;;;5002746;28;20057;-73
2023/02/26 11:52:00;;;;;;;2.10;0.68;;;6.40;80.00;;;;;;5018616;28;20076;-72
2023/02/26 11:54:28;;;;;;;2.75;0.90;;;6.60;82.10;;;;;;5015579;28;20053;-72
2023/02/26 11:57:02;;;;;;;1.90;0.50;;;6.60;80.00;;;;;;5012876;28;20068;-72
2023/02/26 11:59:30;;;;;;;2.45;0.52;;;6.60;80.10;;;;;;4994470;28;20492;-76
2023/02/26 12:02:02;;;;;;;4.88;0.70;;;6.60;76.80;;;;;;5012735;28;20489;-75
2023/02/26 12:04:31;;;;;;;6.32;0.60;;;6.60;75.50;;;;;;5025780;28;20057;-76
2023/02/26 12:06:56;;;;;;;3.85;0.80;;;6.50;74.80;;;;;;5001566;28;20061;-75
2023/02/26 12:09:25;;;;;;;2.75;0.75;;;6.50;75.10;;;;;;5005311;28;20513;-73
2023/02/26 12:12:18;;;;;;;3.55;0.73;;;6.30;74.90;;;;;;4998955;28;20106;-72
2023/02/26 12:15:28;;;;;;;4.15;0.90;;;6.30;75.60;;;;;;5010240;28;20081;-72
2023/02/26 12:18:16;;;;;;;4.72;0.57;;;6.30;76.60;;;;;;5011234;28;20500;-73
2023/02/26 12:21:05;;;;;;;2.60;0.63;;;6.20;76.40;;;;;;5017389;28;20065;-73
2023/02/26 12:23:46;;;;;;;2.70;0.70;;;6.10;75.70;;;;;;5013765;28;20046;-73
2023/02/26 12:26:52;;;;;;;3.83;0.60;;;6.10;77.30;;;;;;5011141;28;20492;-73
2023/02/26 12:29:27;;;;;;;4.15;0.70;;;6.20;77.40;;;;;;5014850;28;20073;-73
2023/02/26 12:32:05;;;;;;;4.22;1.15;;;6.30;78.00;;;;;;5011468;28;20058;-73
2023/02/26 12:34:58;;;;;;;3.47;0.80;;;6.30;76.10;;;;;;5005680;28;20061;-72
2023/02/26 12:37:35;;;;;;;3.70;0.60;;;6.30;76.80;;;;;;5022108;28;20049;-72
2023/02/26 12:40:13;;;;;;;2.83;0.55;;;6.30;75.30;;;;;;5009408;28;20072;-72
2023/02/26 12:42:41;;;;;;;5.13;0.55;;;6.40;77.00;;;;;;5008327;28;20120;-73
2023/02/26 12:45:41;;;;;;;2.92;0.57;;;6.50;79.70;;;;;;5009869;28;20123;-72
2023/02/26 12:48:31;;;;;;;3.38;0.52;;;6.70;77.70;;;;;;5014300;28;20052;-72
2023/02/26 12:51:03;;;;;;;3.63;0.80;;;6.80;75.50;;;;;;5009607;28;20508;-72
2023/02/26 12:53:42;;;;;;;3.85;0.60;;;6.80;71.90;;;;;;5014350;28;20059;-73
2023/02/26 12:56:35;;;;;;;3.10;0.63;;;6.80;72.50;;;;;;5006533;28;20158;-73
2023/02/26 12:59:21;;;;;;;3.75;0.82;;;6.80;72.40;;;;;;5000992;28;20061;-72
2023/02/26 13:02:07;;;;;;;4.20;1.05;;;6.90;74.10;;;;;;5012686;28;20128;-72
2023/02/26 13:04:58;;;;;;;3.45;0.60;;;7.00;76.40;;;;;;5019075;28;20336;-74
2023/02/26 13:07:33;;;;;;;2.75;0.68;;;7.10;71.60;;;;;;5028674;28;20045;-73
2023/02/26 13:10:08;;;;;;;3.40;0.57;;;7.10;72.00;;;;;;5014093;28;20059;-73
2023/02/26 13:12:41;;;;;;;3.50;0.60;;;7.00;71.80;;;;;;5025439;28;20418;-73
2023/02/26 13:15:07;;;;;;;4.28;0.70;;;6.90;70.00;;;;;;5001844;28;20128;-73
2023/02/26 13:17:53;;;;;;;2.15;0.60;;;6.60;70.90;;;;;;5013393;28;20648;-73
2023/02/26 13:20:25;;;;;;;3.38;0.70;;;6.40;72.60;;;;;;5014016;28;20405;-72
2023/02/26 13:23:02;;;;;;;2.70;0.47;;;6.40;73.30;;;;;;4997838;28;20042;-73
2023/02/26 13:25:27;;;;;;;3.92;0.70;;;6.50;71.80;;;;;;5008393;28;20136;-73